sensor_id;sensor_type;location;lat;lon;timestamp;pressure;altitude;pressure_sealevel;temperature;humidity
28181;BME280;15464;50.988;10.318;2023-04-05T00:01:12;99769.50;;;-1.73;73.37
28181;BME280;15464;50.988;10.318;2023-04-05T00:03:39;99768.59;;;-1.71;74.65
28181;BME280;15464;50.988;10.318;2023-04-05T00:06:06;99774.03;;;-1.81;74.50
28181;BME280;15464;50.988;10.318;2023-04-05T00:08:33;99758.59;;;-1.89;74.33
28181;BME280;15464;50.988;10.318;2023-04-05T00:11:00;99758.59;;;-1.89;75.17
28181;BME280;15464;50.988;10.318;2023-04-05T00:13:26;99756.94;;;-1.93;75.46
28181;BME280;15464;50.988;10.318;2023-04-05T00:15:53;99759.53;;;-1.93;74.75
28181;BME280;15464;50.988;10.318;2023-04-05T00:18:24;99762.13;;;-1.93;74.91
28181;BME280;15464;50.988;10.318;2023-04-05T00:20:51;99752.72;;;-1.98;75.30
28181;BME280;15464;50.988;10.318;2023-04-05T00:23:18;99751.06;;;-2.01;76.80
28181;BME280;15464;50.988;10.318;2023-04-05T00:25:47;99752.78;;;-2.00;75.23
28181;BME280;15464;50.988;10.318;2023-04-05T00:28:13;99751.06;;;-2.01;75.26
28181;BME280;15464;50.988;10.318;2023-04-05T00:30:41;99750.25;;;-2.03;75.64
28181;BME280;15464;50.988;10.318;2023-04-05T00:33:08;99748.47;;;-2.01;76.32
28181;BME280;15464;50.988;10.318;2023-04-05T00:35:34;99743.31;;;-2.03;76.76
28181;BME280;15464;50.988;10.318;2023-04-05T00:38:01;99746.81;;;-2.05;76.02
28181;BME280;15464;50.988;10.318;2023-04-05T00:40:28;99747.03;;;-2.14;76.73
28181;BME280;15464;50.988;10.318;2023-04-05T00:42:54;99745.31;;;-2.15;76.50
28181;BME280;15464;50.988;10.318;2023-04-05T00:45:21;99741.00;;;-2.16;77.52
28181;BME280;15464;50.988;10.318;2023-04-05T00:47:48;99741.84;;;-2.14;77.49
28181;BME280;15464;50.988;10.318;2023-04-05T00:50:15;99739.38;;;-2.20;78.53
28181;BME280;15464;50.988;10.318;2023-04-05T00:52:42;99739.41;;;-2.23;78.33
28181;BME280;15464;50.988;10.318;2023-04-05T00:55:09;99735.97;;;-2.24;77.72
28181;BME280;15464;50.988;10.318;2023-04-05T00:57:37;99738.63;;;-2.25;76.04
28181;BME280;15464;50.988;10.318;2023-04-05T01:00:05;99735.19;;;-2.27;77.06
28181;BME280;15464;50.988;10.318;2023-04-05T01:02:41;99738.69;;;-2.30;77.10
28181;BME280;15464;50.988;10.318;2023-04-05T01:05:20;99734.31;;;-2.28;77.42
28181;BME280;15464;50.988;10.318;2023-04-05T01:08:02;99735.97;;;-2.24;77.71
28181;BME280;15464;50.988;10.318;2023-04-05T01:10:36;99743.00;;;-2.29;76.80
28181;BME280;15464;50.988;10.318;2023-04-05T01:13:05;99742.34;;;-2.38;77.81
28181;BME280;15464;50.988;10.318;2023-04-05T01:15:32;99743.28;;;-2.42;77.68
28181;BME280;15464;50.988;10.318;2023-04-05T01:17:59;99746.75;;;-2.44;77.04
28181;BME280;15464;50.988;10.318;2023-04-05T01:20:31;99731.22;;;-2.45;77.64
28181;BME280;15464;50.988;10.318;2023-04-05T01:26:08;99730.66;;;-2.61;79.21
28181;BME280;15464;50.988;10.318;2023-04-05T01:31:22;99722.13;;;-2.66;78.56
28181;BME280;15464;50.988;10.318;2023-04-05T01:33:58;99716.91;;;-2.66;78.93
28181;BME280;15464;50.988;10.318;2023-04-05T01:36:39;99729.06;;;-2.68;78.54
28181;BME280;15464;50.988;10.318;2023-04-05T01:39:08;99725.66;;;-2.70;79.33
28181;BME280;15464;50.988;10.318;2023-04-05T01:41:38;99724.00;;;-2.74;79.62
28181;BME280;15464;50.988;10.318;2023-04-05T01:44:06;99729.19;;;-2.74;79.68
28181;BME280;15464;50.988;10.318;2023-04-05T01:46:33;99717.13;;;-2.76;79.20
28181;BME280;15464;50.988;10.318;2023-04-05T01:48:59;99706.81;;;-2.81;79.02
28181;BME280;15464;50.988;10.318;2023-04-05T01:51:26;99706.91;;;-2.84;78.88
28181;BME280;15464;50.988;10.318;2023-04-05T01:53:53;99712.09;;;-2.84;78.64
28181;BME280;15464;50.988;10.318;2023-04-05T01:56:20;99710.50;;;-2.91;79.24
28181;BME280;15464;50.988;10.318;2023-04-05T01:58:46;99705.38;;;-2.94;79.06
28181;BME280;15464;50.988;10.318;2023-04-05T02:01:13;99707.13;;;-2.96;79.27
28181;BME280;15464;50.988;10.318;2023-04-05T02:03:40;99708.09;;;-3.00;79.22
28181;BME280;15464;50.988;10.318;2023-04-05T02:06:07;99713.34;;;-3.05;80.70
28181;BME280;15464;50.988;10.318;2023-04-05T02:08:34;99710.78;;;-3.06;81.11
28181;BME280;15464;50.988;10.318;2023-04-05T02:11:00;99702.19;;;-3.10;80.66
28181;BME280;15464;50.988;10.318;2023-04-05T02:13:27;99697.06;;;-3.13;80.57
28181;BME280;15464;50.988;10.318;2023-04-05T02:15:54;99696.28;;;-3.18;79.98
28181;BME280;15464;50.988;10.318;2023-04-05T02:18:20;99699.78;;;-3.19;80.10
28181;BME280;15464;50.988;10.318;2023-04-05T02:20:49;99698.91;;;-3.19;80.65
28181;BME280;15464;50.988;10.318;2023-04-05T02:23:18;99696.38;;;-3.22;80.79
28181;BME280;15464;50.988;10.318;2023-04-05T02:25:45;99690.56;;;-3.37;83.16
28181;BME280;15464;50.988;10.318;2023-04-05T02:28:12;99694.09;;;-3.41;83.40
28181;BME280;15464;50.988;10.318;2023-04-05T02:30:39;99698.38;;;-3.38;82.97
28181;BME280;15464;50.988;10.318;2023-04-05T02:33:06;99699.19;;;-3.36;82.04
28181;BME280;15464;50.988;10.318;2023-04-05T02:35:35;99694.00;;;-3.35;81.05
28181;BME280;15464;50.988;10.318;2023-04-05T02:38:03;99692.34;;;-3.39;80.13
28181;BME280;15464;50.988;10.318;2023-04-05T02:40:30;99694.16;;;-3.44;80.63
28181;BME280;15464;50.988;10.318;2023-04-05T02:42:57;99702.91;;;-3.51;80.89
28181;BME280;15464;50.988;10.318;2023-04-05T02:45:24;99707.31;;;-3.56;81.02
28181;BME280;15464;50.988;10.318;2023-04-05T02:47:53;99717.72;;;-3.57;80.80
28181;BME280;15464;50.988;10.318;2023-04-05T02:50:20;99708.22;;;-3.57;80.30
28181;BME280;15464;50.988;10.318;2023-04-05T02:52:49;99708.97;;;-3.50;81.03
28181;BME280;15464;50.988;10.318;2023-04-05T02:55:16;99705.47;;;-3.49;81.08
28181;BME280;15464;50.988;10.318;2023-04-05T02:57:43;99709.81;;;-3.50;81.55
28181;BME280;15464;50.988;10.318;2023-04-05T03:00:12;99708.09;;;-3.51;82.09
28181;BME280;15464;50.988;10.318;2023-04-05T03:02:39;99722.81;;;-3.53;82.51
28181;BME280;15464;50.988;10.318;2023-04-05T03:05:06;99716.78;;;-3.55;81.69
28181;BME280;15464;50.988;10.318;2023-04-05T03:07:33;99715.16;;;-3.59;82.67
28181;BME280;15464;50.988;10.318;2023-04-05T03:10:00;99707.38;;;-3.60;82.97
28181;BME280;15464;50.988;10.318;2023-04-05T03:12:28;99713.41;;;-3.58;82.18
28181;BME280;15464;50.988;10.318;2023-04-05T03:14:54;99716.91;;;-3.61;82.97
28181;BME280;15464;50.988;10.318;2023-04-05T03:17:21;99710.91;;;-3.64;83.41
28181;BME280;15464;50.988;10.318;2023-04-05T03:19:48;99704.88;;;-3.65;82.18
28181;BME280;15464;50.988;10.318;2023-04-05T03:22:14;99708.34;;;-3.66;81.81
28181;BME280;15464;50.988;10.318;2023-04-05T03:24:41;99706.63;;;-3.67;81.95
28181;BME280;15464;50.988;10.318;2023-04-05T03:27:08;99704.97;;;-3.71;82.62
28181;BME280;15464;50.988;10.318;2023-04-05T03:29:34;99699.81;;;-3.74;84.17
28181;BME280;15464;50.988;10.318;2023-04-05T03:32:01;99696.41;;;-3.76;83.81
28181;BME280;15464;50.988;10.318;2023-04-05T03:34:28;99699.88;;;-3.77;84.37
28181;BME280;15464;50.988;10.318;2023-04-05T03:36:54;99695.66;;;-3.81;83.73
28181;BME280;15464;50.988;10.318;2023-04-05T03:39:21;99707.69;;;-3.80;83.76
28181;BME280;15464;50.988;10.318;2023-04-05T03:41:48;99703.41;;;-3.81;83.23
28181;BME280;15464;50.988;10.318;2023-04-05T03:44:14;99694.78;;;-3.82;84.67
28181;BME280;15464;50.988;10.318;2023-04-05T03:46:41;99693.09;;;-3.84;84.15
28181;BME280;15464;50.988;10.318;2023-04-05T03:49:09;99693.19;;;-3.90;82.90
28181;BME280;15464;50.988;10.318;2023-04-05T03:51:36;99694.94;;;-3.92;82.75
28181;BME280;15464;50.988;10.318;2023-04-05T03:54:04;99688.09;;;-3.96;83.31
28181;BME280;15464;50.988;10.318;2023-04-05T03:56:31;99688.13;;;-3.99;82.57
28181;BME280;15464;50.988;10.318;2023-04-05T03:58:58;99689.84;;;-3.98;82.40
28181;BME280;15464;50.988;10.318;2023-04-05T04:01:25;99690.69;;;-3.98;81.82
28181;BME280;15464;50.988;10.318;2023-04-05T04:03:51;99689.88;;;-4.00;83.07
28181;BME280;15464;50.988;10.318;2023-04-05T04:06:18;99695.09;;;-4.01;82.68
28181;BME280;15464;50.988;10.318;2023-04-05T04:08:45;99690.75;;;-4.01;83.19
28181;BME280;15464;50.988;10.318;2023-04-05T04:11:11;99684.63;;;-3.95;84.56
28181;BME280;15464;50.988;10.318;2023-04-05T04:13:38;99690.72;;;-3.99;82.48
28181;BME280;15464;50.988;10.318;2023-04-05T04:16:05;99683.00;;;-4.02;82.36
28181;BME280;15464;50.988;10.318;2023-04-05T04:18:32;99692.63;;;-4.11;83.27
28181;BME280;15464;50.988;10.318;2023-04-05T04:21:01;99695.28;;;-4.15;83.67
28181;BME280;15464;50.988;10.318;2023-04-05T04:23:33;99695.25;;;-4.14;84.56
28181;BME280;15464;50.988;10.318;2023-04-05T04:26:00;99685.75;;;-4.13;84.18
28181;BME280;15464;50.988;10.318;2023-04-05T04:28:27;99685.75;;;-4.13;84.42
28181;BME280;15464;50.988;10.318;2023-04-05T04:30:54;99678.03;;;-4.18;83.87
28181;BME280;15464;50.988;10.318;2023-04-05T04:33:21;99687.59;;;-4.20;84.10
28181;BME280;15464;50.988;10.318;2023-04-05T04:35:47;99678.09;;;-4.21;83.89
28181;BME280;15464;50.988;10.318;2023-04-05T04:38:15;99678.09;;;-4.21;83.96
28181;BME280;15464;50.988;10.318;2023-04-05T04:40:44;99678.97;;;-4.23;84.13
28181;BME280;15464;50.988;10.318;2023-04-05T04:43:16;99679.84;;;-4.24;84.12
28181;BME280;15464;50.988;10.318;2023-04-05T04:45:43;99679.91;;;-4.26;84.57
28181;BME280;15464;50.988;10.318;2023-04-05T04:48:14;99685.06;;;-4.26;84.93
28181;BME280;15464;50.988;10.318;2023-04-05T04:50:43;99684.22;;;-4.26;84.75
28181;BME280;15464;50.988;10.318;2023-04-05T04:53:11;99685.94;;;-4.27;84.96
28181;BME280;15464;50.988;10.318;2023-04-05T04:55:39;99689.34;;;-4.23;84.07
28181;BME280;15464;50.988;10.318;2023-04-05T04:58:09;99680.69;;;-4.22;85.31
28181;BME280;15464;50.988;10.318;2023-04-05T05:00:38;99683.31;;;-4.24;84.50
28181;BME280;15464;50.988;10.318;2023-04-05T05:03:07;99675.63;;;-4.30;84.41
28181;BME280;15464;50.988;10.318;2023-04-05T05:05:34;99676.50;;;-4.31;85.81
28181;BME280;15464;50.988;10.318;2023-04-05T05:08:00;99677.41;;;-4.32;86.15
28181;BME280;15464;50.988;10.318;2023-04-05T05:10:27;99672.22;;;-4.33;86.85
28181;BME280;15464;50.988;10.318;2023-04-05T05:12:54;99674.84;;;-4.35;85.53
28181;BME280;15464;50.988;10.318;2023-04-05T05:15:21;99673.13;;;-4.36;86.19
28181;BME280;15464;50.988;10.318;2023-04-05T05:17:47;99673.94;;;-4.32;86.71
28181;BME280;15464;50.988;10.318;2023-04-05T05:20:18;99671.31;;;-4.31;86.62
28181;BME280;15464;50.988;10.318;2023-04-05T05:22:45;99673.03;;;-4.30;86.63
28181;BME280;15464;50.988;10.318;2023-04-05T05:25:12;99675.59;;;-4.27;87.08
28181;BME280;15464;50.988;10.318;2023-04-05T05:27:39;99673.03;;;-4.30;86.97
28181;BME280;15464;50.988;10.318;2023-04-05T05:30:06;99680.72;;;-4.24;86.35
28181;BME280;15464;50.988;10.318;2023-04-05T05:32:32;99681.53;;;-4.19;86.61
28181;BME280;15464;50.988;10.318;2023-04-05T05:34:59;99682.34;;;-4.17;87.27
28181;BME280;15464;50.988;10.318;2023-04-05T05:37:30;99681.38;;;-4.08;86.58
28181;BME280;15464;50.988;10.318;2023-04-05T05:39:58;99686.44;;;-4.00;87.03
28181;BME280;15464;50.988;10.318;2023-04-05T05:42:25;99687.25;;;-3.98;87.03
28181;BME280;15464;50.988;10.318;2023-04-05T05:44:52;99682.03;;;-3.94;87.05
28181;BME280;15464;50.988;10.318;2023-04-05T05:47:19;99689.81;;;-3.95;86.03
28181;BME280;15464;50.988;10.318;2023-04-05T05:49:46;99692.44;;;-3.98;86.17
28181;BME280;15464;50.988;10.318;2023-04-05T05:52:15;99692.50;;;-4.03;86.02
28181;BME280;15464;50.988;10.318;2023-04-05T05:54:42;99691.72;;;-4.07;86.53
28181;BME280;15464;50.988;10.318;2023-04-05T05:57:09;99688.22;;;-4.06;86.82
28181;BME280;15464;50.988;10.318;2023-04-05T05:59:35;99689.81;;;-3.95;88.33
28181;BME280;15464;50.988;10.318;2023-04-05T06:02:02;99689.69;;;-3.88;87.45
28181;BME280;15464;50.988;10.318;2023-04-05T06:04:29;99696.63;;;-3.88;86.37
28181;BME280;15464;50.988;10.318;2023-04-05T06:06:56;99691.38;;;-3.87;86.32
28181;BME280;15464;50.988;10.318;2023-04-05T06:09:23;99695.66;;;-3.83;86.80
28181;BME280;15464;50.988;10.318;2023-04-05T06:11:51;99692.09;;;-3.76;86.91
28181;BME280;15464;50.988;10.318;2023-04-05T06:14:23;99698.03;;;-3.69;87.14
28181;BME280;15464;50.988;10.318;2023-04-05T06:16:50;99690.13;;;-3.61;87.69
28181;BME280;15464;50.988;10.318;2023-04-05T06:19:17;99696.97;;;-3.57;87.23
28181;BME280;15464;50.988;10.318;2023-04-05T06:21:44;99694.31;;;-3.53;87.83
28181;BME280;15464;50.988;10.318;2023-04-05T06:24:11;99692.44;;;-3.45;87.44
28181;BME280;15464;50.988;10.318;2023-04-05T06:26:37;99688.00;;;-3.38;87.12
28181;BME280;15464;50.988;10.318;2023-04-05T06:29:04;99683.56;;;-3.32;87.37
28181;BME280;15464;50.988;10.318;2023-04-05T06:34:19;99691.19;;;-3.22;87.90
28181;BME280;15464;50.988;10.318;2023-04-05T06:36:46;99690.16;;;-3.12;88.06
28181;BME280;15464;50.988;10.318;2023-04-05T06:39:13;99686.53;;;-3.05;87.40
28181;BME280;15464;50.988;10.318;2023-04-05T06:41:40;99687.28;;;-2.99;87.02
28181;BME280;15464;50.988;10.318;2023-04-05T06:44:07;99685.38;;;-2.89;87.60
28181;BME280;15464;50.988;10.318;2023-04-05T06:46:34;99678.38;;;-2.86;87.01
28181;BME280;15464;50.988;10.318;2023-04-05T06:49:01;99687.72;;;-2.77;86.14
28181;BME280;15464;50.988;10.318;2023-04-05T06:51:29;99684.91;;;-2.66;85.70
28181;BME280;15464;50.988;10.318;2023-04-05T06:53:56;99682.25;;;-2.63;85.37
28181;BME280;15464;50.988;10.318;2023-04-05T06:56:23;99685.63;;;-2.58;84.76
28181;BME280;15464;50.988;10.318;2023-04-05T06:58:49;99684.63;;;-2.53;84.67
28181;BME280;15464;50.988;10.318;2023-04-05T07:01:16;99676.72;;;-2.47;84.42
28181;BME280;15464;50.988;10.318;2023-04-05T07:03:44;99679.03;;;-2.34;83.97
28181;BME280;15464;50.988;10.318;2023-04-05T07:06:10;99685.69;;;-2.21;83.40
28181;BME280;15464;50.988;10.318;2023-04-05T07:08:38;99680.03;;;-2.00;83.36
28181;BME280;15464;50.988;10.318;2023-04-05T07:11:04;99675.13;;;-1.77;83.61
28181;BME280;15464;50.988;10.318;2023-04-05T07:13:31;99672.75;;;-1.50;83.32
28181;BME280;15464;50.988;10.318;2023-04-05T07:15:59;99668.38;;;-1.16;84.48
28181;BME280;15464;50.988;10.318;2023-04-05T07:18:27;99668.34;;;-0.84;83.27
28181;BME280;15464;50.988;10.318;2023-04-05T07:20:56;99669.91;;;-0.47;83.31
28181;BME280;15464;50.988;10.318;2023-04-05T07:23:26;99668.81;;;-0.11;82.73
28181;BME280;15464;50.988;10.318;2023-04-05T07:25:59;99656.75;;;0.13;78.99
28181;BME280;15464;50.988;10.318;2023-04-05T07:28:31;99657.44;;;0.46;77.58
28181;BME280;15464;50.988;10.318;2023-04-05T07:30:58;99648.56;;;0.76;78.75
28181;BME280;15464;50.988;10.318;2023-04-05T07:33:25;99654.31;;;1.11;78.62
28181;BME280;15464;50.988;10.318;2023-04-05T07:35:53;99644.47;;;1.42;77.98
28181;BME280;15464;50.988;10.318;2023-04-05T07:38:20;99645.09;;;1.71;76.40
28181;BME280;15464;50.988;10.318;2023-04-05T07:40:48;99651.34;;;1.90;73.46
28181;BME280;15464;50.988;10.318;2023-04-05T07:43:15;99646.13;;;2.12;73.46
28181;BME280;15464;50.988;10.318;2023-04-05T07:45:42;99643.28;;;2.38;73.35
28181;BME280;15464;50.988;10.318;2023-04-05T07:48:09;99640.69;;;2.58;72.33
28181;BME280;15464;50.988;10.318;2023-04-05T07:50:36;99637.50;;;2.92;72.13
28181;BME280;15464;50.988;10.318;2023-04-05T07:53:06;99641.03;;;3.11;67.70
28181;BME280;15464;50.988;10.318;2023-04-05T07:55:36;99636.97;;;3.24;64.60
28181;BME280;15464;50.988;10.318;2023-04-05T07:58:03;99635.63;;;3.35;62.94
28181;BME280;15464;50.988;10.318;2023-04-05T08:00:29;99635.41;;;3.39;62.94
28181;BME280;15464;50.988;10.318;2023-04-05T08:02:56;99635.34;;;3.41;65.17
28181;BME280;15464;50.988;10.318;2023-04-05T08:05:27;99639.81;;;3.57;66.32
28181;BME280;15464;50.988;10.318;2023-04-05T08:07:54;99633.38;;;3.64;63.01
28181;BME280;15464;50.988;10.318;2023-04-05T08:10:24;99636.28;;;3.77;63.81
28181;BME280;15464;50.988;10.318;2023-04-05T08:12:51;99631.75;;;3.81;63.03
28181;BME280;15464;50.988;10.318;2023-04-05T08:15:17;99630.44;;;3.89;63.67
28181;BME280;15464;50.988;10.318;2023-04-05T08:17:44;99624.59;;;4.01;63.48
28181;BME280;15464;50.988;10.318;2023-04-05T08:20:11;99624.47;;;4.04;61.76
28181;BME280;15464;50.988;10.318;2023-04-05T08:22:38;99623.69;;;4.02;63.12
28181;BME280;15464;50.988;10.318;2023-04-05T08:25:05;99622.91;;;4.00;62.32
28181;BME280;15464;50.988;10.318;2023-04-05T08:27:32;99622.63;;;3.88;61.23
28181;BME280;15464;50.988;10.318;2023-04-05T08:29:58;99620.53;;;3.77;60.91
28181;BME280;15464;50.988;10.318;2023-04-05T08:32:25;99618.25;;;3.88;57.05
28181;BME280;15464;50.988;10.318;2023-04-05T08:34:52;99614.03;;;3.67;55.05
28181;BME280;15464;50.988;10.318;2023-04-05T08:37:18;99622.88;;;3.83;57.40
28181;BME280;15464;50.988;10.318;2023-04-05T08:39:45;99608.59;;;3.89;57.31
28181;BME280;15464;50.988;10.318;2023-04-05T08:42:17;99610.94;;;3.76;53.14
28181;BME280;15464;50.988;10.318;2023-04-05T08:44:44;99614.41;;;3.95;55.58
28181;BME280;15464;50.988;10.318;2023-04-05T08:47:17;99607.03;;;4.03;49.94
28181;BME280;15464;50.988;10.318;2023-04-05T08:49:44;99613.09;;;4.23;49.83
28181;BME280;15464;50.988;10.318;2023-04-05T08:52:11;99602.41;;;4.09;48.49
28181;BME280;15464;50.988;10.318;2023-04-05T08:54:38;99608.44;;;4.11;52.28
28181;BME280;15464;50.988;10.318;2023-04-05T08:57:06;99610.56;;;4.02;50.06
28181;BME280;15464;50.988;10.318;2023-04-05T08:59:36;99613.81;;;4.07;52.19
28181;BME280;15464;50.988;10.318;2023-04-05T09:02:11;99609.69;;;4.21;48.90
28181;BME280;15464;50.988;10.318;2023-04-05T09:04:42;99607.13;;;4.19;48.79
28181;BME280;15464;50.988;10.318;2023-04-05T09:07:15;99604.97;;;4.27;46.27
28181;BME280;15464;50.988;10.318;2023-04-05T09:09:47;99603.13;;;4.46;49.50
28181;BME280;15464;50.988;10.318;2023-04-05T09:12:14;99597.13;;;4.62;45.99
28181;BME280;15464;50.988;10.318;2023-04-05T09:14:42;99602.75;;;4.54;45.20
28181;BME280;15464;50.988;10.318;2023-04-05T09:17:09;99600.59;;;4.45;46.67
28181;BME280;15464;50.988;10.318;2023-04-05T09:19:36;99599.84;;;4.43;47.99
28181;BME280;15464;50.988;10.318;2023-04-05T09:22:05;99600.22;;;4.35;48.22
28181;BME280;15464;50.988;10.318;2023-04-05T09:24:39;99591.47;;;4.18;49.72
28181;BME280;15464;50.988;10.318;2023-04-05T09:27:11;99591.47;;;4.35;48.63
28181;BME280;15464;50.988;10.318;2023-04-05T09:29:39;99600.50;;;4.46;47.07
28181;BME280;15464;50.988;10.318;2023-04-05T09:32:07;99590.84;;;4.47;46.73
28181;BME280;15464;50.988;10.318;2023-04-05T09:34:34;99590.63;;;4.52;48.28
28181;BME280;15464;50.988;10.318;2023-04-05T09:39:39;99587.44;;;4.79;46.90
28181;BME280;15464;50.988;10.318;2023-04-05T09:42:10;99589.47;;;4.74;46.54
28181;BME280;15464;50.988;10.318;2023-04-05T09:47:18;99583.69;;;5.01;46.84
28181;BME280;15464;50.988;10.318;2023-04-05T09:49:46;99582.75;;;5.02;46.83
28181;BME280;15464;50.988;10.318;2023-04-05T09:54:45;99585.88;;;4.93;43.94
28181;BME280;15464;50.988;10.318;2023-04-05T09:57:12;99585.25;;;4.87;45.40
28181;BME280;15464;50.988;10.318;2023-04-05T09:59:40;99575.69;;;4.86;45.99
28181;BME280;15464;50.988;10.318;2023-04-05T10:02:09;99577.53;;;4.84;44.87
28181;BME280;15464;50.988;10.318;2023-04-05T10:04:44;99575.22;;;4.78;45.65
28181;BME280;15464;50.988;10.318;2023-04-05T10:07:13;99585.63;;;4.97;45.27
28181;BME280;15464;50.988;10.318;2023-04-05T10:09:42;99579.06;;;5.06;45.50
28181;BME280;15464;50.988;10.318;2023-04-05T10:12:11;99577.19;;;5.08;45.41
28181;BME280;15464;50.988;10.318;2023-04-05T10:14:40;99579.59;;;4.95;45.18
28181;BME280;15464;50.988;10.318;2023-04-05T10:17:27;99578.56;;;5.15;45.28
28181;BME280;15464;50.988;10.318;2023-04-05T10:20:14;99578.34;;;5.02;44.07
28181;BME280;15464;50.988;10.318;2023-04-05T10:27:47;99571.28;;;5.20;44.29
28181;BME280;15464;50.988;10.318;2023-04-05T10:30:17;99559.94;;;5.35;45.14
28181;BME280;15464;50.988;10.318;2023-04-05T10:33:06;99560.88;;;5.34;46.20
28181;BME280;15464;50.988;10.318;2023-04-05T10:38:20;99554.16;;;5.28;43.91
28181;BME280;15464;50.988;10.318;2023-04-05T10:40:54;99559.09;;;5.35;44.42
28181;BME280;15464;50.988;10.318;2023-04-05T10:43:24;99555.69;;;5.33;44.39
28181;BME280;15464;50.988;10.318;2023-04-05T10:45:53;99556.38;;;5.36;46.03
28181;BME280;15464;50.988;10.318;2023-04-05T10:48:44;99544.50;;;5.60;44.97
28181;BME280;15464;50.988;10.318;2023-04-05T10:51:14;99544.47;;;5.76;45.29
28181;BME280;15464;50.988;10.318;2023-04-05T10:53:42;99538.00;;;6.13;44.75
28181;BME280;15464;50.988;10.318;2023-04-05T10:56:12;99538.47;;;6.35;44.43
28181;BME280;15464;50.988;10.318;2023-04-05T10:58:40;99529.03;;;6.01;43.54
28181;BME280;15464;50.988;10.318;2023-04-05T11:01:08;99525.81;;;5.81;43.36
28181;BME280;15464;50.988;10.318;2023-04-05T11:03:51;99537.34;;;5.94;43.29
28181;BME280;15464;50.988;10.318;2023-04-05T11:08:52;99513.81;;;6.06;43.05
28181;BME280;15464;50.988;10.318;2023-04-05T11:11:21;99516.78;;;6.16;42.17
28181;BME280;15464;50.988;10.318;2023-04-05T11:13:49;99511.31;;;6.19;42.79
28181;BME280;15464;50.988;10.318;2023-04-05T11:16:16;99511.91;;;6.24;42.57
28181;BME280;15464;50.988;10.318;2023-04-05T11:18:44;99511.22;;;6.21;42.07
28181;BME280;15464;50.988;10.318;2023-04-05T11:21:20;99507.22;;;6.43;41.96
28181;BME280;15464;50.988;10.318;2023-04-05T11:24:06;99508.44;;;6.24;40.98
28181;BME280;15464;50.988;10.318;2023-04-05T11:26:52;99504.25;;;6.50;41.28
28181;BME280;15464;50.988;10.318;2023-04-05T11:29:46;99504.09;;;6.67;41.37
28181;BME280;15464;50.988;10.318;2023-04-05T11:32:16;99508.03;;;6.60;41.00
28181;BME280;15464;50.988;10.318;2023-04-05T11:34:43;99504.47;;;6.89;43.32
28181;BME280;15464;50.988;10.318;2023-04-05T11:37:14;99499.94;;;6.77;44.79
28181;BME280;15464;50.988;10.318;2023-04-05T11:39:41;99486.59;;;6.80;41.48
28181;BME280;15464;50.988;10.318;2023-04-05T11:42:10;99494.09;;;6.72;41.37
28181;BME280;15464;50.988;10.318;2023-04-05T11:44:46;99492.31;;;6.72;40.27
28181;BME280;15464;50.988;10.318;2023-04-05T11:47:18;99492.88;;;6.77;39.56
28181;BME280;15464;50.988;10.318;2023-04-05T11:49:49;99488.34;;;6.94;39.72
28181;BME280;15464;50.988;10.318;2023-04-05T11:52:19;99480.25;;;7.11;39.82
28181;BME280;15464;50.988;10.318;2023-04-05T11:54:46;99479.06;;;7.43;40.49
28181;BME280;15464;50.988;10.318;2023-04-05T11:57:22;99480.19;;;7.80;41.46
28181;BME280;15464;50.988;10.318;2023-04-05T11:59:50;99472.19;;;8.07;41.30
28181;BME280;15464;50.988;10.318;2023-04-05T12:02:17;99475.56;;;7.96;39.68
28181;BME280;15464;50.988;10.318;2023-04-05T12:04:52;99471.63;;;8.29;39.71
28181;BME280;15464;50.988;10.318;2023-04-05T12:07:19;99460.25;;;8.66;42.28
28181;BME280;15464;50.988;10.318;2023-04-05T12:09:59;99456.00;;;8.76;37.33
28181;BME280;15464;50.988;10.318;2023-04-05T12:12:32;99451.13;;;8.96;38.21
28181;BME280;15464;50.988;10.318;2023-04-05T12:14:59;99447.16;;;9.50;38.10
28181;BME280;15464;50.988;10.318;2023-04-05T12:17:49;99453.06;;;9.30;37.76
28181;BME280;15464;50.988;10.318;2023-04-05T12:20:23;99444.59;;;9.96;39.46
28181;BME280;15464;50.988;10.318;2023-04-05T12:22:52;99442.38;;;10.14;37.64
28181;BME280;15464;50.988;10.318;2023-04-05T12:25:19;99436.22;;;10.13;38.12
28181;BME280;15464;50.988;10.318;2023-04-05T12:27:46;99439.31;;;9.96;38.12
28181;BME280;15464;50.988;10.318;2023-04-05T12:32:43;99428.03;;;10.63;33.48
28181;BME280;15464;50.988;10.318;2023-04-05T12:35:21;99427.16;;;9.70;34.69
28181;BME280;15464;50.988;10.318;2023-04-05T12:37:49;99431.91;;;9.54;33.90
28181;BME280;15464;50.988;10.318;2023-04-05T12:40:21;99420.81;;;10.54;38.13
28181;BME280;15464;50.988;10.318;2023-04-05T12:42:48;99414.50;;;11.21;39.84
28181;BME280;15464;50.988;10.318;2023-04-05T12:45:16;99417.13;;;10.21;35.02
28181;BME280;15464;50.988;10.318;2023-04-05T12:47:52;99413.78;;;11.08;37.43
28181;BME280;15464;50.988;10.318;2023-04-05T12:50:26;99406.75;;;11.84;40.01
28181;BME280;15464;50.988;10.318;2023-04-05T12:52:55;99414.22;;;11.47;35.88
28181;BME280;15464;50.988;10.318;2023-04-05T12:55:23;99399.63;;;11.41;35.83
28181;BME280;15464;50.988;10.318;2023-04-05T12:58:03;99396.00;;;12.78;37.97
28181;BME280;15464;50.988;10.318;2023-04-05T13:00:30;99393.28;;;12.17;32.77
28181;BME280;15464;50.988;10.318;2023-04-05T13:02:58;99381.00;;;12.46;32.12
28181;BME280;15464;50.988;10.318;2023-04-05T13:05:27;99387.16;;;11.85;32.50
28181;BME280;15464;50.988;10.318;2023-04-05T13:07:54;99381.06;;;11.30;33.16
28181;BME280;15464;50.988;10.318;2023-04-05T13:10:22;99380.28;;;10.96;32.96
28181;BME280;15464;50.988;10.318;2023-04-05T13:12:50;99386.22;;;11.43;38.35
28181;BME280;15464;50.988;10.318;2023-04-05T13:15:17;99380.50;;;11.90;37.58
28181;BME280;15464;50.988;10.318;2023-04-05T13:17:44;99376.88;;;11.91;32.34
28181;BME280;15464;50.988;10.318;2023-04-05T13:20:11;99379.91;;;11.87;32.50
28181;BME280;15464;50.988;10.318;2023-04-05T13:22:38;99367.28;;;12.51;36.74
28181;BME280;15464;50.988;10.318;2023-04-05T13:25:05;99364.78;;;12.29;35.17
28181;BME280;15464;50.988;10.318;2023-04-05T13:27:31;99374.41;;;11.36;34.54
28181;BME280;15464;50.988;10.318;2023-04-05T13:29:58;99372.50;;;11.58;37.72